sensor_id;sensor_type;location;lat;lon;timestamp;P1;durP1;ratioP1;P2;durP2;ratioP2
35550;SDS011;21655;46.056;13.616;2023-06-14T00:00:45;8.05;;;4.55;;
35550;SDS011;21655;46.056;13.616;2023-06-14T00:03:11;6.70;;;4.30;;
35550;SDS011;21655;46.056;13.616;2023-06-14T00:05:39;12.70;;;5.20;;
35550;SDS011;21655;46.056;13.616;2023-06-14T00:08:08;8.57;;;4.47;;
35550;SDS011;21655;46.056;13.616;2023-06-14T00:10:34;7.10;;;4.15;;
35550;SDS011;21655;46.056;13.616;2023-06-14T00:13:03;11.85;;;5.75;;
35550;SDS011;21655;46.056;13.616;2023-06-14T00:15:30;8.68;;;4.25;;
35550;SDS011;21655;46.056;13.616;2023-06-14T00:17:56;9.38;;;4.70;;
35550;SDS011;21655;46.056;13.616;2023-06-14T00:20:28;6.53;;;4.60;;
35550;SDS011;21655;46.056;13.616;2023-06-14T00:22:55;9.40;;;4.47;;
35550;SDS011;21655;46.056;13.616;2023-06-14T00:25:24;9.85;;;5.20;;
35550;SDS011;21655;46.056;13.616;2023-06-14T00:27:50;7.13;;;4.60;;
35550;SDS011;21655;46.056;13.616;2023-06-14T00:30:16;6.28;;;4.43;;
35550;SDS011;21655;46.056;13.616;2023-06-14T00:32:41;7.20;;;4.80;;
35550;SDS011;21655;46.056;13.616;2023-06-14T00:35:08;8.70;;;4.45;;
35550;SDS011;21655;46.056;13.616;2023-06-14T00:37:33;6.97;;;5.00;;
35550;SDS011;21655;46.056;13.616;2023-06-14T00:39:59;8.52;;;4.30;;
35550;SDS011;21655;46.056;13.616;2023-06-14T00:42:25;13.15;;;4.80;;
35550;SDS011;21655;46.056;13.616;2023-06-14T00:44:51;11.20;;;5.25;;
35550;SDS011;21655;46.056;13.616;2023-06-14T00:47:17;9.63;;;4.63;;
35550;SDS011;21655;46.056;13.616;2023-06-14T00:49:45;6.07;;;4.25;;
35550;SDS011;21655;46.056;13.616;2023-06-14T00:52:10;9.15;;;4.85;;
35550;SDS011;21655;46.056;13.616;2023-06-14T00:54:37;9.85;;;5.28;;
35550;SDS011;21655;46.056;13.616;2023-06-14T00:57:06;11.18;;;5.45;;
35550;SDS011;21655;46.056;13.616;2023-06-14T00:59:32;7.78;;;5.10;;
35550;SDS011;21655;46.056;13.616;2023-06-14T01:01:58;8.45;;;4.70;;
35550;SDS011;21655;46.056;13.616;2023-06-14T01:04:23;7.40;;;5.40;;
35550;SDS011;21655;46.056;13.616;2023-06-14T01:14:48;7.70;;;4.40;;
35550;SDS011;21655;46.056;13.616;2023-06-14T01:17:15;6.25;;;4.53;;
35550;SDS011;21655;46.056;13.616;2023-06-14T01:19:42;12.90;;;7.43;;
35550;SDS011;21655;46.056;13.616;2023-06-14T01:22:08;12.68;;;7.50;;
35550;SDS011;21655;46.056;13.616;2023-06-14T01:24:33;11.07;;;5.78;;
35550;SDS011;21655;46.056;13.616;2023-06-14T01:27:00;7.47;;;4.82;;
35550;SDS011;21655;46.056;13.616;2023-06-14T01:29:27;9.60;;;4.50;;
35550;SDS011;21655;46.056;13.616;2023-06-14T01:31:58;9.07;;;4.57;;
35550;SDS011;21655;46.056;13.616;2023-06-14T01:34:24;28.75;;;16.02;;
35550;SDS011;21655;46.056;13.616;2023-06-14T01:36:50;15.38;;;10.55;;
35550;SDS011;21655;46.056;13.616;2023-06-14T01:39:19;16.38;;;7.32;;
35550;SDS011;21655;46.056;13.616;2023-06-14T01:41:46;9.00;;;5.45;;
35550;SDS011;21655;46.056;13.616;2023-06-14T01:44:12;8.35;;;4.47;;
35550;SDS011;21655;46.056;13.616;2023-06-14T01:46:40;9.93;;;4.32;;
35550;SDS011;21655;46.056;13.616;2023-06-14T01:49:07;9.45;;;4.60;;
35550;SDS011;21655;46.056;13.616;2023-06-14T01:51:33;11.18;;;4.28;;
35550;SDS011;21655;46.056;13.616;2023-06-14T01:53:58;8.65;;;4.60;;
35550;SDS011;21655;46.056;13.616;2023-06-14T01:56:25;11.23;;;4.68;;
35550;SDS011;21655;46.056;13.616;2023-06-14T01:58:51;9.80;;;4.65;;
35550;SDS011;21655;46.056;13.616;2023-06-14T02:01:16;8.85;;;5.47;;
35550;SDS011;21655;46.056;13.616;2023-06-14T02:03:44;8.20;;;5.50;;
35550;SDS011;21655;46.056;13.616;2023-06-14T02:06:10;8.30;;;4.88;;
35550;SDS011;21655;46.056;13.616;2023-06-14T02:08:35;5.53;;;4.25;;
35550;SDS011;21655;46.056;13.616;2023-06-14T02:11:01;8.98;;;4.82;;
35550;SDS011;21655;46.056;13.616;2023-06-14T02:13:26;8.25;;;4.70;;
35550;SDS011;21655;46.056;13.616;2023-06-14T02:15:52;8.38;;;4.53;;
35550;SDS011;21655;46.056;13.616;2023-06-14T02:18:20;14.02;;;4.40;;
35550;SDS011;21655;46.056;13.616;2023-06-14T02:20:46;11.77;;;4.63;;
35550;SDS011;21655;46.056;13.616;2023-06-14T02:23:12;10.55;;;4.80;;
35550;SDS011;21655;46.056;13.616;2023-06-14T02:25:37;8.73;;;5.28;;
35550;SDS011;21655;46.056;13.616;2023-06-14T02:28:04;6.40;;;4.95;;
35550;SDS011;21655;46.056;13.616;2023-06-14T02:30:30;9.07;;;5.15;;
35550;SDS011;21655;46.056;13.616;2023-06-14T02:32:56;8.00;;;5.35;;
35550;SDS011;21655;46.056;13.616;2023-06-14T02:35:22;8.75;;;5.13;;
35550;SDS011;21655;46.056;13.616;2023-06-14T02:37:51;12.70;;;5.78;;
35550;SDS011;21655;46.056;13.616;2023-06-14T02:40:17;10.32;;;5.25;;
35550;SDS011;21655;46.056;13.616;2023-06-14T02:42:43;8.95;;;5.53;;
35550;SDS011;21655;46.056;13.616;2023-06-14T02:45:08;8.98;;;5.20;;
35550;SDS011;21655;46.056;13.616;2023-06-14T02:47:34;8.68;;;5.20;;
35550;SDS011;21655;46.056;13.616;2023-06-14T02:49:59;6.78;;;4.82;;
35550;SDS011;21655;46.056;13.616;2023-06-14T02:52:25;9.20;;;5.07;;
35550;SDS011;21655;46.056;13.616;2023-06-14T02:54:51;9.48;;;5.88;;
35550;SDS011;21655;46.056;13.616;2023-06-14T02:57:17;10.23;;;5.45;;
35550;SDS011;21655;46.056;13.616;2023-06-14T02:59:42;13.13;;;6.97;;
35550;SDS011;21655;46.056;13.616;2023-06-14T03:02:08;13.68;;;8.55;;
35550;SDS011;21655;46.056;13.616;2023-06-14T03:04:33;13.88;;;8.00;;
35550;SDS011;21655;46.056;13.616;2023-06-14T03:07:02;11.18;;;5.97;;
35550;SDS011;21655;46.056;13.616;2023-06-14T03:09:34;8.38;;;4.55;;
35550;SDS011;21655;46.056;13.616;2023-06-14T03:12:00;12.27;;;4.75;;
35550;SDS011;21655;46.056;13.616;2023-06-14T03:14:26;8.07;;;4.68;;
35550;SDS011;21655;46.056;13.616;2023-06-14T03:16:51;6.75;;;4.50;;
35550;SDS011;21655;46.056;13.616;2023-06-14T03:19:21;9.15;;;4.85;;
35550;SDS011;21655;46.056;13.616;2023-06-14T03:21:47;8.02;;;5.00;;
35550;SDS011;21655;46.056;13.616;2023-06-14T03:24:12;9.00;;;4.60;;
35550;SDS011;21655;46.056;13.616;2023-06-14T03:26:38;6.90;;;4.80;;
35550;SDS011;21655;46.056;13.616;2023-06-14T03:29:03;9.10;;;4.85;;
35550;SDS011;21655;46.056;13.616;2023-06-14T03:31:29;8.27;;;4.72;;
35550;SDS011;21655;46.056;13.616;2023-06-14T03:33:57;7.80;;;4.93;;
35550;SDS011;21655;46.056;13.616;2023-06-14T03:36:23;11.57;;;5.40;;
35550;SDS011;21655;46.056;13.616;2023-06-14T03:38:48;11.35;;;4.95;;
35550;SDS011;21655;46.056;13.616;2023-06-14T03:41:14;10.35;;;5.70;;
35550;SDS011;21655;46.056;13.616;2023-06-14T03:43:39;12.63;;;5.50;;
35550;SDS011;21655;46.056;13.616;2023-06-14T03:46:05;9.73;;;5.22;;
35550;SDS011;21655;46.056;13.616;2023-06-14T03:48:30;9.43;;;5.00;;
35550;SDS011;21655;46.056;13.616;2023-06-14T03:50:56;10.00;;;5.50;;
35550;SDS011;21655;46.056;13.616;2023-06-14T03:53:21;9.25;;;5.55;;
35550;SDS011;21655;46.056;13.616;2023-06-14T03:55:48;10.05;;;5.30;;
35550;SDS011;21655;46.056;13.616;2023-06-14T03:58:17;8.45;;;5.45;;
35550;SDS011;21655;46.056;13.616;2023-06-14T04:00:43;8.23;;;5.70;;
35550;SDS011;21655;46.056;13.616;2023-06-14T04:03:08;12.27;;;5.10;;
35550;SDS011;21655;46.056;13.616;2023-06-14T04:05:33;9.48;;;5.57;;
35550;SDS011;21655;46.056;13.616;2023-06-14T04:07:59;13.02;;;5.40;;
35550;SDS011;21655;46.056;13.616;2023-06-14T04:10:25;10.38;;;5.35;;
35550;SDS011;21655;46.056;13.616;2023-06-14T04:12:52;8.77;;;5.28;;
35550;SDS011;21655;46.056;13.616;2023-06-14T04:15:17;8.20;;;5.00;;
35550;SDS011;21655;46.056;13.616;2023-06-14T04:17:43;11.45;;;5.10;;
35550;SDS011;21655;46.056;13.616;2023-06-14T04:20:08;10.23;;;5.18;;
35550;SDS011;21655;46.056;13.616;2023-06-14T04:22:35;13.85;;;5.47;;
35550;SDS011;21655;46.056;13.616;2023-06-14T04:25:01;11.18;;;5.30;;
35550;SDS011;21655;46.056;13.616;2023-06-14T04:27:27;11.73;;;4.88;;
35550;SDS011;21655;46.056;13.616;2023-06-14T04:29:53;9.75;;;5.13;;
35550;SDS011;21655;46.056;13.616;2023-06-14T04:32:25;9.15;;;5.35;;
35550;SDS011;21655;46.056;13.616;2023-06-14T04:34:54;13.10;;;5.25;;
35550;SDS011;21655;46.056;13.616;2023-06-14T04:37:20;10.20;;;5.32;;
35550;SDS011;21655;46.056;13.616;2023-06-14T04:39:46;11.32;;;5.18;;
35550;SDS011;21655;46.056;13.616;2023-06-14T04:42:12;11.25;;;5.45;;
35550;SDS011;21655;46.056;13.616;2023-06-14T04:44:40;13.30;;;5.35;;
35550;SDS011;21655;46.056;13.616;2023-06-14T04:47:06;9.07;;;4.75;;
35550;SDS011;21655;46.056;13.616;2023-06-14T04:49:32;10.07;;;5.90;;
35550;SDS011;21655;46.056;13.616;2023-06-14T04:51:59;6.35;;;4.28;;
35550;SDS011;21655;46.056;13.616;2023-06-14T04:54:26;11.85;;;4.53;;
35550;SDS011;21655;46.056;13.616;2023-06-14T04:56:52;9.68;;;4.35;;
35550;SDS011;21655;46.056;13.616;2023-06-14T04:59:20;8.73;;;4.47;;
35550;SDS011;21655;46.056;13.616;2023-06-14T05:01:48;6.70;;;3.90;;
35550;SDS011;21655;46.056;13.616;2023-06-14T05:04:14;5.82;;;3.30;;
35550;SDS011;21655;46.056;13.616;2023-06-14T05:06:41;8.05;;;3.40;;
35550;SDS011;21655;46.056;13.616;2023-06-14T05:09:09;6.28;;;3.65;;
35550;SDS011;21655;46.056;13.616;2023-06-14T05:11:38;16.02;;;3.75;;
35550;SDS011;21655;46.056;13.616;2023-06-14T05:14:03;8.32;;;3.38;;
35550;SDS011;21655;46.056;13.616;2023-06-14T05:16:29;8.93;;;3.50;;
35550;SDS011;21655;46.056;13.616;2023-06-14T05:18:55;5.85;;;3.35;;
35550;SDS011;21655;46.056;13.616;2023-06-14T05:21:20;6.20;;;3.10;;
35550;SDS011;21655;46.056;13.616;2023-06-14T05:23:46;6.07;;;2.92;;
35550;SDS011;21655;46.056;13.616;2023-06-14T05:26:12;8.27;;;3.03;;
35550;SDS011;21655;46.056;13.616;2023-06-14T05:28:37;6.25;;;2.80;;
35550;SDS011;21655;46.056;13.616;2023-06-14T05:31:03;7.90;;;3.47;;
35550;SDS011;21655;46.056;13.616;2023-06-14T05:33:28;5.13;;;3.00;;
35550;SDS011;21655;46.056;13.616;2023-06-14T05:35:54;11.32;;;3.47;;
35550;SDS011;21655;46.056;13.616;2023-06-14T05:38:20;8.52;;;3.08;;
35550;SDS011;21655;46.056;13.616;2023-06-14T05:40:45;9.25;;;3.15;;
35550;SDS011;21655;46.056;13.616;2023-06-14T05:43:11;7.40;;;3.50;;
35550;SDS011;21655;46.056;13.616;2023-06-14T05:45:36;4.97;;;3.10;;
35550;SDS011;21655;46.056;13.616;2023-06-14T05:48:01;6.97;;;3.85;;
35550;SDS011;21655;46.056;13.616;2023-06-14T05:50:27;4.85;;;3.13;;
35550;SDS011;21655;46.056;13.616;2023-06-14T05:52:53;5.57;;;3.42;;
35550;SDS011;21655;46.056;13.616;2023-06-14T05:55:18;8.70;;;3.22;;
35550;SDS011;21655;46.056;13.616;2023-06-14T05:57:44;6.15;;;3.28;;
35550;SDS011;21655;46.056;13.616;2023-06-14T06:00:10;5.88;;;2.88;;
35550;SDS011;21655;46.056;13.616;2023-06-14T06:02:36;8.88;;;3.10;;
35550;SDS011;21655;46.056;13.616;2023-06-14T06:05:02;6.00;;;3.67;;
35550;SDS011;21655;46.056;13.616;2023-06-14T06:07:27;6.78;;;3.35;;
35550;SDS011;21655;46.056;13.616;2023-06-14T06:09:53;14.38;;;3.58;;
35550;SDS011;21655;46.056;13.616;2023-06-14T06:12:18;5.30;;;3.38;;
35550;SDS011;21655;46.056;13.616;2023-06-14T06:14:44;8.40;;;3.50;;
35550;SDS011;21655;46.056;13.616;2023-06-14T06:17:09;5.43;;;3.17;;
35550;SDS011;21655;46.056;13.616;2023-06-14T06:19:35;7.53;;;3.08;;
35550;SDS011;21655;46.056;13.616;2023-06-14T06:22:01;6.03;;;3.15;;
35550;SDS011;21655;46.056;13.616;2023-06-14T06:24:29;11.60;;;3.20;;
35550;SDS011;21655;46.056;13.616;2023-06-14T06:26:55;4.90;;;3.22;;
35550;SDS011;21655;46.056;13.616;2023-06-14T06:29:20;4.78;;;2.95;;
35550;SDS011;21655;46.056;13.616;2023-06-14T06:31:46;10.80;;;3.33;;
35550;SDS011;21655;46.056;13.616;2023-06-14T06:34:11;6.38;;;3.20;;
35550;SDS011;21655;46.056;13.616;2023-06-14T06:36:37;5.90;;;3.20;;
35550;SDS011;21655;46.056;13.616;2023-06-14T06:39:02;9.93;;;3.58;;
35550;SDS011;21655;46.056;13.616;2023-06-14T06:41:34;8.95;;;3.78;;
35550;SDS011;21655;46.056;13.616;2023-06-14T06:44:01;10.05;;;2.92;;
35550;SDS011;21655;46.056;13.616;2023-06-14T06:46:26;5.93;;;2.97;;
35550;SDS011;21655;46.056;13.616;2023-06-14T06:48:52;4.95;;;3.00;;
35550;SDS011;21655;46.056;13.616;2023-06-14T06:51:18;6.15;;;3.28;;
35550;SDS011;21655;46.056;13.616;2023-06-14T06:53:48;8.98;;;3.33;;
35550;SDS011;21655;46.056;13.616;2023-06-14T06:56:18;6.47;;;2.92;;
35550;SDS011;21655;46.056;13.616;2023-06-14T06:58:44;4.88;;;2.97;;
35550;SDS011;21655;46.056;13.616;2023-06-14T07:01:09;6.40;;;3.22;;
35550;SDS011;21655;46.056;13.616;2023-06-14T07:03:35;10.40;;;3.58;;
35550;SDS011;21655;46.056;13.616;2023-06-14T07:06:00;6.45;;;3.13;;
35550;SDS011;21655;46.056;13.616;2023-06-14T07:08:26;6.47;;;3.25;;
35550;SDS011;21655;46.056;13.616;2023-06-14T07:10:52;5.38;;;3.20;;
35550;SDS011;21655;46.056;13.616;2023-06-14T07:13:17;10.75;;;3.35;;
35550;SDS011;21655;46.056;13.616;2023-06-14T07:15:43;6.65;;;3.03;;
35550;SDS011;21655;46.056;13.616;2023-06-14T07:18:08;8.07;;;3.30;;
35550;SDS011;21655;46.056;13.616;2023-06-14T07:20:34;5.55;;;3.15;;
35550;SDS011;21655;46.056;13.616;2023-06-14T07:22:59;5.55;;;3.10;;
35550;SDS011;21655;46.056;13.616;2023-06-14T07:25:25;7.22;;;3.05;;
35550;SDS011;21655;46.056;13.616;2023-06-14T07:27:51;9.68;;;3.45;;
35550;SDS011;21655;46.056;13.616;2023-06-14T07:30:16;9.07;;;3.33;;
35550;SDS011;21655;46.056;13.616;2023-06-14T07:32:41;7.70;;;3.10;;
35550;SDS011;21655;46.056;13.616;2023-06-14T07:35:07;5.35;;;3.30;;
35550;SDS011;21655;46.056;13.616;2023-06-14T07:37:33;7.25;;;3.45;;
35550;SDS011;21655;46.056;13.616;2023-06-14T07:39:59;6.18;;;3.15;;
35550;SDS011;21655;46.056;13.616;2023-06-14T07:42:24;5.57;;;2.97;;
35550;SDS011;21655;46.056;13.616;2023-06-14T07:44:50;4.68;;;2.83;;
35550;SDS011;21655;46.056;13.616;2023-06-14T07:47:17;6.15;;;3.63;;
35550;SDS011;21655;46.056;13.616;2023-06-14T07:49:42;7.47;;;3.00;;
35550;SDS011;21655;46.056;13.616;2023-06-14T07:52:08;8.93;;;2.88;;
35550;SDS011;21655;46.056;13.616;2023-06-14T07:54:33;6.47;;;2.88;;
35550;SDS011;21655;46.056;13.616;2023-06-14T07:56:59;7.72;;;3.30;;
35550;SDS011;21655;46.056;13.616;2023-06-14T07:59:25;9.45;;;3.10;;
35550;SDS011;21655;46.056;13.616;2023-06-14T08:01:51;5.22;;;3.45;;
35550;SDS011;21655;46.056;13.616;2023-06-14T08:04:16;7.13;;;2.95;;
35550;SDS011;21655;46.056;13.616;2023-06-14T08:06:42;6.05;;;3.05;;
35550;SDS011;21655;46.056;13.616;2023-06-14T08:09:10;8.50;;;3.15;;
35550;SDS011;21655;46.056;13.616;2023-06-14T08:11:37;5.93;;;3.08;;
35550;SDS011;21655;46.056;13.616;2023-06-14T08:14:03;4.43;;;3.10;;
35550;SDS011;21655;46.056;13.616;2023-06-14T08:16:28;4.93;;;3.03;;
35550;SDS011;21655;46.056;13.616;2023-06-14T08:18:54;8.25;;;3.50;;
35550;SDS011;21655;46.056;13.616;2023-06-14T08:21:20;5.65;;;2.88;;
35550;SDS011;21655;46.056;13.616;2023-06-14T08:23:45;5.05;;;3.05;;
35550;SDS011;21655;46.056;13.616;2023-06-14T08:26:11;5.25;;;3.00;;
35550;SDS011;21655;46.056;13.616;2023-06-14T08:28:36;5.45;;;3.25;;
35550;SDS011;21655;46.056;13.616;2023-06-14T08:31:02;4.40;;;3.00;;
35550;SDS011;21655;46.056;13.616;2023-06-14T08:33:27;5.88;;;3.20;;
35550;SDS011;21655;46.056;13.616;2023-06-14T08:35:53;6.72;;;2.90;;
35550;SDS011;21655;46.056;13.616;2023-06-14T08:38:18;5.97;;;3.00;;
35550;SDS011;21655;46.056;13.616;2023-06-14T08:40:45;6.07;;;2.90;;
35550;SDS011;21655;46.056;13.616;2023-06-14T08:43:13;5.55;;;2.88;;
35550;SDS011;21655;46.056;13.616;2023-06-14T08:45:38;7.57;;;2.83;;
35550;SDS011;21655;46.056;13.616;2023-06-14T08:48:04;5.25;;;3.00;;
35550;SDS011;21655;46.056;13.616;2023-06-14T08:50:34;7.00;;;3.00;;
35550;SDS011;21655;46.056;13.616;2023-06-14T08:53:04;6.53;;;2.92;;
35550;SDS011;21655;46.056;13.616;2023-06-14T08:55:35;5.47;;;2.70;;
35550;SDS011;21655;46.056;13.616;2023-06-14T08:58:03;4.07;;;2.63;;
35550;SDS011;21655;46.056;13.616;2023-06-14T09:00:29;10.02;;;3.38;;
35550;SDS011;21655;46.056;13.616;2023-06-14T09:02:55;5.43;;;3.13;;
35550;SDS011;21655;46.056;13.616;2023-06-14T09:05:26;7.63;;;2.95;;
35550;SDS011;21655;46.056;13.616;2023-06-14T09:07:53;6.25;;;2.55;;
35550;SDS011;21655;46.056;13.616;2023-06-14T09:10:25;3.90;;;3.00;;
35550;SDS011;21655;46.056;13.616;2023-06-14T09:12:52;5.95;;;3.05;;
35550;SDS011;21655;46.056;13.616;2023-06-14T09:15:18;6.15;;;2.78;;
35550;SDS011;21655;46.056;13.616;2023-06-14T09:17:43;3.90;;;2.88;;
35550;SDS011;21655;46.056;13.616;2023-06-14T09:20:09;7.47;;;3.20;;
35550;SDS011;21655;46.056;13.616;2023-06-14T09:22:35;6.30;;;3.00;;
35550;SDS011;21655;46.056;13.616;2023-06-14T09:25:05;5.60;;;3.03;;
35550;SDS011;21655;46.056;13.616;2023-06-14T09:27:32;5.32;;;3.10;;
35550;SDS011;21655;46.056;13.616;2023-06-14T09:29:57;9.93;;;2.80;;
35550;SDS011;21655;46.056;13.616;2023-06-14T09:32:23;5.45;;;3.05;;
35550;SDS011;21655;46.056;13.616;2023-06-14T09:34:49;8.13;;;3.00;;
35550;SDS011;21655;46.056;13.616;2023-06-14T09:37:30;5.70;;;3.17;;
35550;SDS011;21655;46.056;13.616;2023-06-14T09:39:57;5.68;;;2.80;;
35550;SDS011;21655;46.056;13.616;2023-06-14T09:42:23;5.63;;;3.13;;
35550;SDS011;21655;46.056;13.616;2023-06-14T09:44:51;4.55;;;3.17;;
35550;SDS011;21655;46.056;13.616;2023-06-14T09:47:17;6.97;;;2.75;;
35550;SDS011;21655;46.056;13.616;2023-06-14T09:49:43;6.70;;;2.97;;
35550;SDS011;21655;46.056;13.616;2023-06-14T09:52:18;7.00;;;3.55;;
35550;SDS011;21655;46.056;13.616;2023-06-14T09:54:45;5.47;;;2.80;;
35550;SDS011;21655;46.056;13.616;2023-06-14T09:57:12;8.07;;;3.17;;
35550;SDS011;21655;46.056;13.616;2023-06-14T09:59:42;6.70;;;3.25;;
35550;SDS011;21655;46.056;13.616;2023-06-14T10:02:15;7.20;;;3.47;;
35550;SDS011;21655;46.056;13.616;2023-06-14T10:04:50;5.70;;;3.20;;
35550;SDS011;21655;46.056;13.616;2023-06-14T10:07:25;8.82;;;3.22;;
35550;SDS011;21655;46.056;13.616;2023-06-14T10:09:52;7.30;;;3.50;;
35550;SDS011;21655;46.056;13.616;2023-06-14T10:12:18;7.20;;;3.30;;
35550;SDS011;21655;46.056;13.616;2023-06-14T10:14:50;5.22;;;2.75;;
35550;SDS011;21655;46.056;13.616;2023-06-14T10:19:56;8.80;;;3.60;;
35550;SDS011;21655;46.056;13.616;2023-06-14T10:22:30;9.75;;;3.85;;
35550;SDS011;21655;46.056;13.616;2023-06-14T10:25:01;5.88;;;3.45;;
35550;SDS011;21655;46.056;13.616;2023-06-14T10:27:27;8.98;;;4.18;;
35550;SDS011;21655;46.056;13.616;2023-06-14T10:32:18;7.65;;;3.30;;
35550;SDS011;21655;46.056;13.616;2023-06-14T10:34:44;5.75;;;3.50;;
35550;SDS011;21655;46.056;13.616;2023-06-14T10:37:13;9.95;;;3.20;;
35550;SDS011;21655;46.056;13.616;2023-06-14T10:39:40;5.40;;;2.90;;
35550;SDS011;21655;46.056;13.616;2023-06-14T10:42:06;6.18;;;3.22;;
35550;SDS011;21655;46.056;13.616;2023-06-14T10:44:33;15.48;;;6.32;;
35550;SDS011;21655;46.056;13.616;2023-06-14T10:47:05;4.40;;;3.20;;
35550;SDS011;21655;46.056;13.616;2023-06-14T10:52:11;7.68;;;3.40;;
35550;SDS011;21655;46.056;13.616;2023-06-14T10:57:28;6.53;;;3.00;;
35550;SDS011;21655;46.056;13.616;2023-06-14T10:59:56;5.15;;;3.30;;
35550;SDS011;21655;46.056;13.616;2023-06-14T11:05:27;5.68;;;3.10;;
35550;SDS011;21655;46.056;13.616;2023-06-14T11:10:37;5.55;;;2.97;;
35550;SDS011;21655;46.056;13.616;2023-06-14T11:13:08;5.93;;;3.15;;
35550;SDS011;21655;46.056;13.616;2023-06-14T11:15:37;5.35;;;3.42;;
35550;SDS011;21655;46.056;13.616;2023-06-14T11:18:07;7.38;;;3.47;;
35550;SDS011;21655;46.056;13.616;2023-06-14T11:20:36;6.38;;;3.25;;
35550;SDS011;21655;46.056;13.616;2023-06-14T11:23:02;6.25;;;3.00;;
35550;SDS011;21655;46.056;13.616;2023-06-14T11:25:29;6.03;;;2.78;;
35550;SDS011;21655;46.056;13.616;2023-06-14T11:27:54;7.93;;;3.70;;
35550;SDS011;21655;46.056;13.616;2023-06-14T11:30:20;4.13;;;2.70;;
35550;SDS011;21655;46.056;13.616;2023-06-14T11:32:50;3.60;;;2.60;;
35550;SDS011;21655;46.056;13.616;2023-06-14T11:35:17;8.40;;;3.13;;
35550;SDS011;21655;46.056;13.616;2023-06-14T11:37:44;5.43;;;3.28;;
35550;SDS011;21655;46.056;13.616;2023-06-14T11:40:10;4.43;;;3.28;;
35550;SDS011;21655;46.056;13.616;2023-06-14T11:42:38;6.00;;;3.20;;
35550;SDS011;21655;46.056;13.616;2023-06-14T11:45:07;8.77;;;3.42;;
35550;SDS011;21655;46.056;13.616;2023-06-14T11:47:35;3.88;;;2.90;;
35550;SDS011;21655;46.056;13.616;2023-06-14T11:50:01;5.45;;;3.35;;
35550;SDS011;21655;46.056;13.616;2023-06-14T11:52:26;9.45;;;3.75;;
35550;SDS011;21655;46.056;13.616;2023-06-14T11:54:52;5.03;;;3.35;;
35550;SDS011;21655;46.056;13.616;2023-06-14T11:57:18;5.22;;;3.30;;
35550;SDS011;21655;46.056;13.616;2023-06-14T11:59:45;5.97;;;3.33;;
35550;SDS011;21655;46.056;13.616;2023-06-14T12:02:13;7.25;;;3.33;;
35550;SDS011;21655;46.056;13.616;2023-06-14T12:04:43;6.30;;;3.30;;
35550;SDS011;21655;46.056;13.616;2023-06-14T12:07:09;6.22;;;3.50;;
35550;SDS011;21655;46.056;13.616;2023-06-14T12:09:42;10.35;;;3.40;;
35550;SDS011;21655;46.056;13.616;2023-06-14T12:12:28;10.85;;;3.40;;
35550;SDS011;21655;46.056;13.616;2023-06-14T12:14:57;9.35;;;3.65;;
35550;SDS011;21655;46.056;13.616;2023-06-14T12:17:22;7.28;;;3.25;;
35550;SDS011;21655;46.056;13.616;2023-06-14T12:19:48;5.43;;;3.13;;
35550;SDS011;21655;46.056;13.616;2023-06-14T12:22:15;10.35;;;3.55;;
35550;SDS011;21655;46.056;13.616;2023-06-14T12:24:45;6.75;;;3.60;;
35550;SDS011;21655;46.056;13.616;2023-06-14T12:27:11;6.53;;;3.22;;
35550;SDS011;21655;46.056;13.616;2023-06-14T12:29:41;10.82;;;3.55;;
35550;SDS011;21655;46.056;13.616;2023-06-14T12:32:10;6.80;;;3.92;;
35550;SDS011;21655;46.056;13.616;2023-06-14T12:34:36;6.35;;;3.10;;
35550;SDS011;21655;46.056;13.616;2023-06-14T12:37:01;6.30;;;3.33;;
35550;SDS011;21655;46.056;13.616;2023-06-14T12:39:29;6.05;;;3.40;;
35550;SDS011;21655;46.056;13.616;2023-06-14T12:41:56;7.57;;;3.25;;
35550;SDS011;21655;46.056;13.616;2023-06-14T12:44:22;10.57;;;3.40;;
35550;SDS011;21655;46.056;13.616;2023-06-14T12:46:47;6.70;;;3.22;;
35550;SDS011;21655;46.056;13.616;2023-06-14T12:49:13;6.80;;;3.17;;
35550;SDS011;21655;46.056;13.616;2023-06-14T12:51:38;5.22;;;3.20;;
35550;SDS011;21655;46.056;13.616;2023-06-14T12:54:05;11.98;;;4.18;;
35550;SDS011;21655;46.056;13.616;2023-06-14T12:56:31;9.60;;;3.70;;
35550;SDS011;21655;46.056;13.616;2023-06-14T12:58:57;6.72;;;3.40;;
35550;SDS011;21655;46.056;13.616;2023-06-14T13:01:23;6.75;;;3.55;;
35550;SDS011;21655;46.056;13.616;2023-06-14T13:03:49;7.78;;;3.40;;
35550;SDS011;21655;46.056;13.616;2023-06-14T13:06:15;6.43;;;3.22;;
35550;SDS011;21655;46.056;13.616;2023-06-14T13:08:41;4.70;;;3.33;;
35550;SDS011;21655;46.056;13.616;2023-06-14T13:11:06;8.07;;;4.13;;
35550;SDS011;21655;46.056;13.616;2023-06-14T13:13:32;5.25;;;3.47;;
35550;SDS011;21655;46.056;13.616;2023-06-14T13:15:58;5.43;;;3.40;;
35550;SDS011;21655;46.056;13.616;2023-06-14T13:18:23;7.00;;;3.42;;
35550;SDS011;21655;46.056;13.616;2023-06-14T13:20:48;5.68;;;3.50;;
35550;SDS011;21655;46.056;13.616;2023-06-14T13:23:15;7.38;;;3.50;;
35550;SDS011;21655;46.056;13.616;2023-06-14T13:25:40;5.80;;;3.47;;
35550;SDS011;21655;46.056;13.616;2023-06-14T13:28:06;5.47;;;3.40;;
35550;SDS011;21655;46.056;13.616;2023-06-14T13:30:31;5.70;;;3.20;;
35550;SDS011;21655;46.056;13.616;2023-06-14T13:32:58;6.40;;;3.53;;
35550;SDS011;21655;46.056;13.616;2023-06-14T13:35:24;8.43;;;3.80;;
35550;SDS011;21655;46.056;13.616;2023-06-14T13:37:50;5.95;;;3.35;;
35550;SDS011;21655;46.056;13.616;2023-06-14T13:40:16;5.90;;;3.50;;
35550;SDS011;21655;46.056;13.616;2023-06-14T13:42:42;7.03;;;3.83;;
35550;SDS011;21655;46.056;13.616;2023-06-14T13:45:08;9.77;;;3.83;;
35550;SDS011;21655;46.056;13.616;2023-06-14T13:47:36;7.65;;;3.95;;
35550;SDS011;21655;46.056;13.616;2023-06-14T13:50:02;9.27;;;3.60;;
35550;SDS011;21655;46.056;13.616;2023-06-14T13:52:28;5.53;;;3.88;;
35550;SDS011;21655;46.056;13.616;2023-06-14T13:54:53;7.18;;;3.92;;
35550;SDS011;21655;46.056;13.616;2023-06-14T13:57:19;5.75;;;3.60;;
35550;SDS011;21655;46.056;13.616;2023-06-14T13:59:45;10.95;;;3.90;;
35550;SDS011;21655;46.056;13.616;2023-06-14T14:02:10;5.80;;;3.30;;
35550;SDS011;21655;46.056;13.616;2023-06-14T14:04:36;5.40;;;3.50;;
35550;SDS011;21655;46.056;13.616;2023-06-14T14:07:06;6.85;;;3.55;;
35550;SDS011;21655;46.056;13.616;2023-06-14T14:09:32;8.13;;;3.35;;
35550;SDS011;21655;46.056;13.616;2023-06-14T14:11:59;5.40;;;3.35;;
35550;SDS011;21655;46.056;13.616;2023-06-14T14:14:25;9.27;;;3.67;;
35550;SDS011;21655;46.056;13.616;2023-06-14T14:16:52;5.03;;;3.30;;
35550;SDS011;21655;46.056;13.616;2023-06-14T14:19:19;8.32;;;3.70;;
35550;SDS011;21655;46.056;13.616;2023-06-14T14:21:46;5.00;;;3.53;;
35550;SDS011;21655;46.056;13.616;2023-06-14T14:24:11;6.82;;;3.65;;
35550;SDS011;21655;46.056;13.616;2023-06-14T14:26:37;6.97;;;3.78;;
35550;SDS011;21655;46.056;13.616;2023-06-14T14:29:02;5.15;;;3.25;;
35550;SDS011;21655;46.056;13.616;2023-06-14T14:31:28;8.18;;;3.75;;
35550;SDS011;21655;46.056;13.616;2023-06-14T14:33:53;4.80;;;3.45;;
35550;SDS011;21655;46.056;13.616;2023-06-14T14:36:19;6.32;;;3.63;;
35550;SDS011;21655;46.056;13.616;2023-06-14T14:38:44;5.68;;;3.30;;
35550;SDS011;21655;46.056;13.616;2023-06-14T14:41:10;6.45;;;3.28;;
35550;SDS011;21655;46.056;13.616;2023-06-14T14:43:35;7.03;;;3.60;;
35550;SDS011;21655;46.056;13.616;2023-06-14T14:46:01;7.82;;;3.65;;
35550;SDS011;21655;46.056;13.616;2023-06-14T14:48:26;4.45;;;3.10;;
35550;SDS011;21655;46.056;13.616;2023-06-14T14:50:52;6.60;;;3.65;;
35550;SDS011;21655;46.056;13.616;2023-06-14T14:53:17;5.22;;;3.38;;